createdAt,value
2019-02-15T00:00:14.341Z,1019.41
2019-02-15T00:01:14.318Z,1019.43
2019-02-15T00:02:14.294Z,1019.43
2019-02-15T00:03:14.269Z,1019.41
2019-02-15T00:04:14.313Z,1019.44
2019-02-15T00:05:14.221Z,1019.43
2019-02-15T00:06:14.234Z,1019.47
2019-02-15T00:07:14.228Z,1019.44
2019-02-15T00:08:14.184Z,1019.49
2019-02-15T00:09:14.377Z,1019.46
2019-02-15T00:10:14.118Z,1019.44
2019-02-15T00:11:14.094Z,1019.53
2019-02-15T00:12:14.084Z,1019.49
2019-02-15T00:13:14.080Z,1019.48
2019-02-15T00:14:14.053Z,1019.49
2019-02-15T00:15:14.022Z,1019.47
2019-02-15T00:16:14.031Z,1019.48
2019-02-15T00:17:13.947Z,1019.47
2019-02-15T00:18:13.931Z,1019.45
2019-02-15T00:19:13.921Z,1019.48
2019-02-15T00:20:13.892Z,1019.45
2019-02-15T00:21:13.861Z,1019.47
2019-02-15T00:22:13.874Z,1019.45
2019-02-15T00:23:13.818Z,1019.49
2019-02-15T00:24:13.799Z,1019.48
2019-02-15T00:25:13.774Z,1019.48
2019-02-15T00:26:13.749Z,1019.46
2019-02-15T00:27:13.726Z,1019.46
2019-02-15T00:28:13.709Z,1019.44
2019-02-15T00:29:13.682Z,1019.43
2019-02-15T00:30:13.736Z,1019.44
2019-02-15T00:31:13.634Z,1019.38
2019-02-15T00:32:13.613Z,1019.42
2019-02-15T00:33:13.624Z,1019.45
2019-02-15T00:34:13.623Z,1019.43
2019-02-15T00:35:13.546Z,1019.41
2019-02-15T00:36:13.526Z,1019.39
2019-02-15T00:37:13.499Z,1019.41
2019-02-15T00:38:13.481Z,1019.36
2019-02-15T00:39:13.478Z,1019.37
2019-02-15T00:40:13.471Z,1019.36
2019-02-15T00:41:13.436Z,1019.40
2019-02-15T00:42:13.396Z,1019.44
2019-02-15T00:43:21.955Z,1019.41
2019-02-15T00:44:13.378Z,1019.41
2019-02-15T00:45:13.319Z,1019.38
2019-02-15T00:46:13.315Z,1019.39
2019-02-15T00:47:13.278Z,1019.38
2019-02-15T00:48:13.257Z,1019.36
2019-02-15T00:49:13.228Z,1019.35
2019-02-15T00:50:13.212Z,1019.37
2019-02-15T00:51:13.191Z,1019.38
2019-02-15T00:52:13.161Z,1019.37
2019-02-15T00:53:13.165Z,1019.37
2019-02-15T00:54:13.163Z,1019.39
2019-02-15T00:55:13.110Z,1019.34
2019-02-15T00:56:13.081Z,1019.36
2019-02-15T00:57:13.069Z,1019.35
2019-02-15T00:58:13.035Z,1019.35
2019-02-15T00:59:13.012Z,1019.37
2019-02-15T01:00:13.001Z,1019.37
2019-02-15T01:01:12.986Z,1019.34
2019-02-15T01:02:12.939Z,1019.33
2019-02-15T01:03:12.928Z,1019.31
2019-02-15T01:04:12.906Z,1019.32
2019-02-15T01:05:12.885Z,1019.27
2019-02-15T01:06:12.856Z,1019.28
2019-02-15T01:07:12.825Z,1019.31
2019-02-15T01:08:12.807Z,1019.31
2019-02-15T01:09:12.791Z,1019.23
2019-02-15T01:10:12.770Z,1019.22
2019-02-15T01:11:12.743Z,1019.23
2019-02-15T01:12:12.720Z,1019.26
2019-02-15T01:13:12.738Z,1019.23
2019-02-15T01:14:12.678Z,1019.26
2019-02-15T01:15:12.678Z,1019.23
2019-02-15T01:16:12.635Z,1019.28
2019-02-15T01:17:12.615Z,1019.23
2019-02-15T01:18:12.581Z,1019.25
2019-02-15T01:19:12.573Z,1019.23
2019-02-15T01:20:12.543Z,1019.21
2019-02-15T01:21:12.530Z,1019.20
2019-02-15T01:22:12.505Z,1019.19
2019-02-15T01:23:12.478Z,1019.19
2019-02-15T01:24:12.454Z,1019.20
2019-02-15T01:25:12.428Z,1019.17
2019-02-15T01:26:12.415Z,1019.17
2019-02-15T01:27:12.382Z,1019.20
2019-02-15T01:28:12.360Z,1019.21
2019-02-15T01:29:12.389Z,1019.14
2019-02-15T01:30:12.318Z,1019.09
2019-02-15T01:31:12.301Z,1019.13
2019-02-15T01:32:12.272Z,1019.11
2019-02-15T01:33:12.252Z,1019.10
2019-02-15T01:34:12.232Z,1019.09
2019-02-15T01:35:12.231Z,1019.08
2019-02-15T01:36:12.211Z,1019.12
2019-02-15T01:37:12.169Z,1019.09
2019-02-15T01:38:12.141Z,1019.06
2019-02-15T01:39:12.120Z,1019.07
2019-02-15T01:40:12.096Z,1019.08
2019-02-15T01:41:12.072Z,1019.05
2019-02-15T01:42:12.052Z,1019.08
2019-02-15T01:43:12.037Z,1019.06
2019-02-15T01:44:12.022Z,1019.01
2019-02-15T01:45:11.985Z,1019.04
2019-02-15T01:46:11.971Z,1019.05
2019-02-15T01:47:11.940Z,1019.01
2019-02-15T01:48:11.931Z,1019.06
2019-02-15T01:49:11.898Z,1019.05
2019-02-15T01:50:11.892Z,1019.03
2019-02-15T01:51:11.851Z,1019.02
2019-02-15T01:52:11.828Z,1018.98
2019-02-15T01:53:11.811Z,1018.96
2019-02-15T01:54:11.786Z,1019.01
2019-02-15T01:55:11.769Z,1018.99
2019-02-15T01:56:11.741Z,1018.98
2019-02-15T01:57:11.727Z,1018.93
2019-02-15T01:58:11.705Z,1018.90
2019-02-15T01:59:11.668Z,1018.88
2019-02-15T02:00:11.674Z,1018.86
2019-02-15T02:01:11.641Z,1018.87
2019-02-15T02:02:11.626Z,1018.91
2019-02-15T02:03:11.577Z,1018.86
2019-02-15T02:04:11.564Z,1018.84
2019-02-15T02:05:11.537Z,1018.81
2019-02-15T02:06:11.533Z,1018.83
2019-02-15T02:07:11.499Z,1018.83
2019-02-15T02:08:11.517Z,1018.83
2019-02-15T02:09:11.482Z,1018.80
2019-02-15T02:10:11.423Z,1018.78
2019-02-15T02:11:11.406Z,1018.79
2019-02-15T02:12:11.382Z,1018.79
2019-02-15T02:13:11.361Z,1018.77
2019-02-15T02:14:11.348Z,1018.78
2019-02-15T02:15:11.317Z,1018.79
2019-02-15T02:16:11.325Z,1018.79
2019-02-15T02:17:11.266Z,1018.80
2019-02-15T02:18:11.305Z,1018.75
2019-02-15T02:19:11.233Z,1018.76
2019-02-15T02:20:11.203Z,1018.74
2019-02-15T02:21:11.180Z,1018.77
2019-02-15T02:22:11.167Z,1018.71
2019-02-15T02:23:11.157Z,1018.68
2019-02-15T02:24:11.121Z,1018.68
2019-02-15T02:25:11.097Z,1018.68
2019-02-15T02:26:11.088Z,1018.67
2019-02-15T02:27:11.067Z,1018.67
2019-02-15T02:28:11.028Z,1018.67
2019-02-15T02:29:11.011Z,1018.65
2019-02-15T02:30:10.997Z,1018.63
2019-02-15T02:31:10.969Z,1018.63
2019-02-15T02:32:10.953Z,1018.64
2019-02-15T02:33:10.933Z,1018.60
2019-02-15T02:34:10.895Z,1018.62
2019-02-15T02:35:10.902Z,1018.60
2019-02-15T02:36:10.854Z,1018.60
2019-02-15T02:37:10.822Z,1018.59
2019-02-15T02:38:10.815Z,1018.63
2019-02-15T02:39:10.782Z,1018.62
2019-02-15T02:40:10.755Z,1018.56
2019-02-15T02:41:10.734Z,1018.56
2019-02-15T02:42:10.712Z,1018.58
2019-02-15T02:43:10.722Z,1018.51
2019-02-15T02:44:10.671Z,1018.53
2019-02-15T02:45:10.645Z,1018.54
2019-02-15T02:46:10.658Z,1018.53
2019-02-15T02:47:10.602Z,1018.53
2019-02-15T02:48:10.577Z,1018.47
2019-02-15T02:49:10.558Z,1018.50
2019-02-15T02:50:10.533Z,1018.48
2019-02-15T02:51:10.508Z,1018.49
2019-02-15T02:52:10.492Z,1018.51
2019-02-15T02:53:10.536Z,1018.48
2019-02-15T02:54:10.446Z,1018.46
2019-02-15T02:55:10.432Z,1018.49
2019-02-15T02:56:10.412Z,1018.49
2019-02-15T02:57:10.401Z,1018.51
2019-02-15T02:58:10.357Z,1018.51
2019-02-15T02:59:10.368Z,1018.45
2019-02-15T03:00:10.324Z,1018.43
2019-02-15T03:01:10.295Z,1018.46
2019-02-15T03:02:10.273Z,1018.47
2019-02-15T03:03:10.243Z,1018.47
2019-02-15T03:04:10.230Z,1018.48
2019-02-15T03:05:10.224Z,1018.45
2019-02-15T03:06:10.177Z,1018.45
2019-02-15T03:07:10.167Z,1018.46
2019-02-15T03:08:10.135Z,1018.45
2019-02-15T03:09:10.119Z,1018.45
2019-02-15T03:10:10.120Z,1018.46
2019-02-15T03:11:10.093Z,1018.48
2019-02-15T03:12:10.047Z,1018.47
2019-02-15T03:13:10.020Z,1018.44
2019-02-15T03:14:11.826Z,1018.47
2019-02-15T03:15:10.014Z,1018.48
2019-02-15T03:16:09.949Z,1018.44
2019-02-15T03:17:09.933Z,1018.46
2019-02-15T03:18:09.913Z,1018.45
2019-02-15T03:19:09.907Z,1018.44
2019-02-15T03:20:09.864Z,1018.46
2019-02-15T03:21:09.852Z,1018.45
2019-02-15T03:22:09.820Z,1018.40
2019-02-15T03:23:09.791Z,1018.41
2019-02-15T03:24:09.774Z,1018.47
2019-02-15T03:25:09.775Z,1018.44
2019-02-15T03:26:09.738Z,1018.45
2019-02-15T03:27:09.702Z,1018.44
2019-02-15T03:28:09.706Z,1018.45
2019-02-15T03:29:09.693Z,1018.41
2019-02-15T03:30:09.684Z,1018.38
2019-02-15T03:31:09.625Z,1018.38
2019-02-15T03:32:09.617Z,1018.39
2019-02-15T03:33:09.588Z,1018.36
2019-02-15T03:34:09.604Z,1018.32
2019-02-15T03:35:09.537Z,1018.33
2019-02-15T03:36:09.505Z,1018.34
2019-02-15T03:37:09.498Z,1018.34
2019-02-15T03:38:09.486Z,1018.33
2019-02-15T03:39:09.441Z,1018.29
2019-02-15T03:40:09.412Z,1018.30
2019-02-15T03:41:09.394Z,1018.27
2019-02-15T03:42:09.405Z,1018.27
2019-02-15T03:43:09.344Z,1018.24
2019-02-15T03:44:09.321Z,1018.27
2019-02-15T03:45:09.306Z,1018.26
2019-02-15T03:46:09.291Z,1018.27
2019-02-15T03:47:09.258Z,1018.28
2019-02-15T03:48:09.244Z,1018.26
2019-02-15T03:49:09.218Z,1018.26
2019-02-15T03:50:09.194Z,1018.25
2019-02-15T03:51:09.168Z,1018.27
2019-02-15T03:52:09.156Z,1018.22
2019-02-15T03:53:09.135Z,1018.22
2019-02-15T03:54:09.115Z,1018.20
2019-02-15T03:55:09.088Z,1018.21
2019-02-15T03:56:09.055Z,1018.16
2019-02-15T03:57:09.054Z,1018.17
2019-02-15T03:58:09.014Z,1018.17
2019-02-15T03:59:08.993Z,1018.17
2019-02-15T04:00:08.996Z,1018.19
2019-02-15T04:01:08.947Z,1018.17
2019-02-15T04:02:08.928Z,1018.19
2019-02-15T04:03:08.896Z,1018.19
2019-02-15T04:04:08.921Z,1018.13
2019-02-15T04:05:08.853Z,1018.12
2019-02-15T04:06:08.846Z,1018.14
2019-02-15T04:07:08.821Z,1018.14
2019-02-15T04:08:08.797Z,1018.16
2019-02-15T04:09:08.774Z,1018.13
2019-02-15T04:10:08.742Z,1018.10
2019-02-15T04:11:08.722Z,1018.12
2019-02-15T04:12:08.699Z,1018.12
2019-02-15T04:13:08.675Z,1018.11
2019-02-15T04:14:08.667Z,1018.10
2019-02-15T04:15:08.636Z,1018.12
2019-02-15T04:16:08.608Z,1018.11
2019-02-15T04:17:08.599Z,1018.09
2019-02-15T04:18:08.563Z,1018.11
2019-02-15T04:19:08.550Z,1018.09
2019-02-15T04:20:08.519Z,1018.08
2019-02-15T04:21:08.494Z,1018.09
2019-02-15T04:22:08.484Z,1018.10
2019-02-15T04:23:08.462Z,1018.10
2019-02-15T04:24:08.443Z,1018.07
2019-02-15T04:25:08.427Z,1018.06
2019-02-15T04:26:08.375Z,1018.04
2019-02-15T04:27:08.372Z,1018.06
2019-02-15T04:28:08.340Z,1018.10
2019-02-15T04:29:08.330Z,1018.09
2019-02-15T04:30:08.298Z,1018.05
2019-02-15T04:31:08.278Z,1018.03
2019-02-15T04:32:08.254Z,1018.08
2019-02-15T04:33:08.228Z,1018.08
2019-02-15T04:34:08.201Z,1018.09
2019-02-15T04:35:08.175Z,1018.06
2019-02-15T04:36:08.151Z,1018.04
2019-02-15T04:37:08.143Z,1018.07
2019-02-15T04:38:08.129Z,1018.07
2019-02-15T04:39:08.096Z,1018.07
2019-02-15T04:40:08.088Z,1018.06
2019-02-15T04:41:08.058Z,1018.06
2019-02-15T04:42:08.041Z,1018.09
2019-02-15T04:43:08.031Z,1018.05
2019-02-15T04:44:07.981Z,1018.03
2019-02-15T04:45:07.966Z,1018.03
2019-02-15T04:46:07.938Z,1018.03
2019-02-15T04:47:07.909Z,1018.04
2019-02-15T04:48:07.894Z,1018.08
2019-02-15T04:49:07.870Z,1018.10
2019-02-15T04:50:07.855Z,1018.05
2019-02-15T04:51:07.826Z,1018.05
2019-02-15T04:52:07.802Z,1018.09
2019-02-15T04:53:07.783Z,1018.10
2019-02-15T04:54:07.754Z,1018.12
2019-02-15T04:55:07.728Z,1018.09
2019-02-15T04:56:07.741Z,1018.10
2019-02-15T04:57:07.693Z,1018.11
2019-02-15T04:58:07.661Z,1018.10
2019-02-15T04:59:07.672Z,1018.13
2019-02-15T05:00:07.620Z,1018.14
2019-02-15T05:01:07.611Z,1018.12
2019-02-15T05:02:07.571Z,1018.15
2019-02-15T05:03:07.560Z,1018.11
2019-02-15T05:04:07.561Z,1018.11
2019-02-15T05:05:07.522Z,1018.14
2019-02-15T05:06:07.501Z,1018.10
2019-02-15T05:07:07.487Z,1018.09
2019-02-15T05:08:07.442Z,1018.06
2019-02-15T05:09:07.418Z,1018.06
2019-02-15T05:10:07.406Z,1018.07
2019-02-15T05:11:07.370Z,1018.09
2019-02-15T05:12:07.348Z,1018.09
2019-02-15T05:13:07.337Z,1018.03
2019-02-15T05:14:07.320Z,1018.07
2019-02-15T05:15:07.281Z,1018.09
2019-02-15T05:16:07.255Z,1018.07
2019-02-15T05:17:07.244Z,1018.06
2019-02-15T05:18:07.217Z,1018.07
2019-02-15T05:19:07.194Z,1018.03
2019-02-15T05:20:07.183Z,1018.06
2019-02-15T05:21:07.172Z,1018.06
2019-02-15T05:22:07.126Z,1018.07
2019-02-15T05:23:07.114Z,1018.10
2019-02-15T05:24:07.083Z,1018.09
2019-02-15T05:25:07.056Z,1018.11
2019-02-15T05:26:07.035Z,1018.10
2019-02-15T05:27:07.012Z,1018.08
2019-02-15T05:28:08.965Z,1018.12
2019-02-15T05:29:06.967Z,1018.08
2019-02-15T05:30:06.944Z,1018.13
2019-02-15T05:31:06.934Z,1018.12
2019-02-15T05:32:06.913Z,1018.12
2019-02-15T05:33:06.878Z,1018.11
2019-02-15T05:34:06.854Z,1018.13
2019-02-15T05:35:06.855Z,1018.15
2019-02-15T05:36:06.817Z,1018.12
2019-02-15T05:37:06.793Z,1018.13
2019-02-15T05:38:06.775Z,1018.17
2019-02-15T05:39:06.741Z,1018.14
2019-02-15T05:40:06.735Z,1018.17
2019-02-15T05:41:06.698Z,1018.14
2019-02-15T05:42:06.673Z,1018.19
2019-02-15T05:43:06.653Z,1018.16
2019-02-15T05:44:06.642Z,1018.18
2019-02-15T05:45:06.615Z,1018.16
2019-02-15T05:46:06.585Z,1018.12
2019-02-15T05:47:06.560Z,1018.16
2019-02-15T05:48:06.541Z,1018.19
2019-02-15T05:49:06.521Z,1018.17
2019-02-15T05:50:06.501Z,1018.15
2019-02-15T05:51:06.475Z,1018.19
2019-02-15T05:52:06.474Z,1018.21
2019-02-15T05:53:06.429Z,1018.21
2019-02-15T05:54:06.420Z,1018.20
2019-02-15T05:55:06.385Z,1018.21
2019-02-15T05:56:06.372Z,1018.21
2019-02-15T05:57:06.340Z,1018.19
2019-02-15T05:58:06.324Z,1018.21
2019-02-15T05:59:06.313Z,1018.23
2019-02-15T06:00:06.266Z,1018.19
2019-02-15T06:01:06.246Z,1018.20
2019-02-15T06:02:06.220Z,1018.18
2019-02-15T06:03:06.204Z,1018.21
2019-02-15T06:04:06.179Z,1018.20
2019-02-15T06:05:06.152Z,1018.27
2019-02-15T06:06:06.153Z,1018.23
2019-02-15T06:07:06.124Z,1018.25
2019-02-15T06:08:06.081Z,1018.23
2019-02-15T06:09:06.054Z,1018.19
2019-02-15T06:10:06.053Z,1018.21
2019-02-15T06:11:07.833Z,1018.22
2019-02-15T06:12:05.989Z,1018.20
2019-02-15T06:13:05.964Z,1018.22
2019-02-15T06:14:05.973Z,1018.18
2019-02-15T06:15:14.840Z,1018.22
2019-02-15T06:16:05.907Z,1018.19
2019-02-15T06:17:05.910Z,1018.22
2019-02-15T06:18:05.853Z,1018.21
2019-02-15T06:19:05.824Z,1018.17
2019-02-15T06:20:05.834Z,1018.18
2019-02-15T06:21:05.781Z,1018.20
2019-02-15T06:22:05.793Z,1018.24
2019-02-15T06:23:05.739Z,1018.16
2019-02-15T06:24:05.721Z,1018.19
2019-02-15T06:25:05.692Z,1018.17
2019-02-15T06:26:05.674Z,1018.17
2019-02-15T06:27:05.668Z,1018.22
2019-02-15T06:28:05.619Z,1018.18
2019-02-15T06:29:05.593Z,1018.20
2019-02-15T06:30:05.584Z,1018.18
2019-02-15T06:31:05.544Z,1018.18
2019-02-15T06:32:05.533Z,1018.17
2019-02-15T06:33:05.515Z,1018.23
2019-02-15T06:34:05.480Z,1018.19
2019-02-15T06:35:05.456Z,1018.19
2019-02-15T06:36:05.438Z,1018.20
2019-02-15T06:37:05.414Z,1018.21
2019-02-15T06:38:05.392Z,1018.20
2019-02-15T06:39:05.371Z,1018.17
2019-02-15T06:40:05.354Z,1018.17
2019-02-15T06:41:05.341Z,1018.16
2019-02-15T06:42:05.321Z,1018.24
2019-02-15T06:43:05.287Z,1018.22
2019-02-15T06:44:05.259Z,1018.20
2019-02-15T06:45:05.233Z,1018.23
2019-02-15T06:46:05.203Z,1018.22
2019-02-15T06:47:05.181Z,1018.23
2019-02-15T06:48:05.211Z,1018.24
2019-02-15T06:49:05.152Z,1018.19
2019-02-15T06:50:06.602Z,1018.20
2019-02-15T06:51:05.080Z,1018.23
2019-02-15T06:52:05.060Z,1018.17
2019-02-15T06:53:05.057Z,1018.20
2019-02-15T06:54:05.027Z,1018.21
2019-02-15T06:55:04.979Z,1018.20
2019-02-15T06:56:04.969Z,1018.23
2019-02-15T06:57:04.958Z,1018.20
2019-02-15T06:58:04.933Z,1018.24
2019-02-15T06:59:04.929Z,1018.20
2019-02-15T07:00:04.889Z,1018.22
2019-02-15T07:01:04.861Z,1018.22
2019-02-15T07:02:04.829Z,1018.25
2019-02-15T07:03:04.809Z,1018.22
2019-02-15T07:04:04.774Z,1018.24
2019-02-15T07:05:04.774Z,1018.31
2019-02-15T07:06:04.725Z,1018.29
2019-02-15T07:07:04.694Z,1018.30
2019-02-15T07:08:04.722Z,1018.32
2019-02-15T07:09:04.655Z,1018.28
2019-02-15T07:10:04.641Z,1018.29
2019-02-15T07:11:04.638Z,1018.28
2019-02-15T07:12:04.583Z,1018.32
2019-02-15T07:13:04.575Z,1018.28
2019-02-15T07:14:04.580Z,1018.34
2019-02-15T07:15:04.528Z,1018.28
2019-02-15T07:16:04.497Z,1018.32
2019-02-15T07:17:04.469Z,1018.28
2019-02-15T07:18:04.450Z,1018.33
2019-02-15T07:19:04.442Z,1018.32
2019-02-15T07:20:04.396Z,1018.30
2019-02-15T07:21:04.442Z,1018.32
2019-02-15T07:22:04.858Z,1018.36
2019-02-15T07:23:04.321Z,1018.32
2019-02-15T07:24:04.304Z,1018.33
2019-02-15T07:25:04.300Z,1018.34
2019-02-15T07:26:04.267Z,1018.32
2019-02-15T07:27:04.250Z,1018.33
2019-02-15T07:28:04.235Z,1018.35
2019-02-15T07:29:04.204Z,1018.29
2019-02-15T07:30:04.160Z,1018.28
2019-02-15T07:31:04.139Z,1018.27
2019-02-15T07:32:04.116Z,1018.32
2019-02-15T07:33:04.093Z,1018.32
2019-02-15T07:34:04.068Z,1018.30
2019-02-15T07:35:04.063Z,1018.28
2019-02-15T07:36:04.066Z,1018.26
2019-02-15T07:37:04.025Z,1018.28
2019-02-15T07:38:03.993Z,1018.27
2019-02-15T07:39:03.947Z,1018.32
2019-02-15T07:40:03.938Z,1018.25
2019-02-15T07:41:03.912Z,1018.30
2019-02-15T07:42:03.898Z,1018.28
2019-02-15T07:43:03.859Z,1018.28
2019-02-15T07:44:03.839Z,1018.28
2019-02-15T07:45:03.830Z,1018.29
2019-02-15T07:46:03.807Z,1018.32
2019-02-15T07:47:03.780Z,1018.30
2019-02-15T07:48:03.751Z,1018.32
2019-02-15T07:49:03.720Z,1018.28
2019-02-15T07:50:03.710Z,1018.29
2019-02-15T07:51:09.497Z,1018.32
2019-02-15T07:52:03.661Z,1018.30
2019-02-15T07:53:03.630Z,1018.33
2019-02-15T07:54:03.625Z,1018.32
2019-02-15T07:55:03.612Z,1018.37
2019-02-15T07:56:03.583Z,1018.34
2019-02-15T07:57:03.547Z,1018.35
2019-02-15T07:58:03.531Z,1018.37
2019-02-15T07:59:03.519Z,1018.35
2019-02-15T08:00:03.484Z,1018.32
2019-02-15T08:01:03.469Z,1018.35
2019-02-15T08:02:03.464Z,1018.37
2019-02-15T08:03:03.448Z,1018.37
2019-02-15T08:04:03.406Z,1018.42
2019-02-15T08:05:03.377Z,1018.39
2019-02-15T08:06:03.370Z,1018.37
2019-02-15T08:07:03.329Z,1018.40
2019-02-15T08:08:03.328Z,1018.38
2019-02-15T08:09:03.292Z,1018.36
2019-02-15T08:10:03.282Z,1018.38
2019-02-15T08:11:03.244Z,1018.34
2019-02-15T08:12:03.233Z,1018.33
2019-02-15T08:13:03.193Z,1018.30
2019-02-15T08:14:03.210Z,1018.30
2019-02-15T08:15:03.159Z,1018.28
2019-02-15T08:16:03.146Z,1018.26
2019-02-15T08:17:03.111Z,1018.27
2019-02-15T08:18:03.086Z,1018.26
2019-02-15T08:19:03.070Z,1018.34
2019-02-15T08:20:03.081Z,1018.26
2019-02-15T08:21:03.030Z,1018.32
2019-02-15T08:22:03.008Z,1018.31
2019-02-15T08:23:02.988Z,1018.26
2019-02-15T08:24:02.957Z,1018.29
2019-02-15T08:25:03.082Z,1018.27
2019-02-15T08:26:02.915Z,1018.28
2019-02-15T08:27:02.893Z,1018.29
2019-02-15T08:28:02.876Z,1018.32
2019-02-15T08:29:02.850Z,1018.29
2019-02-15T08:30:02.827Z,1018.31
2019-02-15T08:31:02.836Z,1018.24
2019-02-15T08:32:02.784Z,1018.22
2019-02-15T08:33:02.777Z,1018.23
2019-02-15T08:34:02.742Z,1018.20
2019-02-15T08:35:02.720Z,1018.19
2019-02-15T08:36:02.701Z,1018.20
2019-02-15T08:37:02.687Z,1018.21
2019-02-15T08:38:02.664Z,1018.21
2019-02-15T08:39:02.637Z,1018.17
2019-02-15T08:40:02.623Z,1018.16
2019-02-15T08:41:02.624Z,1018.15
2019-02-15T08:42:04.434Z,1018.15
2019-02-15T08:43:02.554Z,1018.11
2019-02-15T08:44:02.562Z,1018.16
2019-02-15T08:45:02.516Z,1018.13
2019-02-15T08:46:03.412Z,1018.11
2019-02-15T08:47:02.468Z,1018.12
2019-02-15T08:48:02.455Z,1018.08
2019-02-15T08:49:02.443Z,1018.11
2019-02-15T08:50:02.432Z,1018.04
2019-02-15T08:51:02.384Z,1018.05
2019-02-15T08:52:02.368Z,1018.03
2019-02-15T08:53:02.341Z,1018.07
2019-02-15T08:54:02.319Z,1018.07
2019-02-15T08:55:02.303Z,1018.03
2019-02-15T08:56:02.280Z,1018.03
2019-02-15T08:57:02.266Z,1017.98
2019-02-15T08:58:02.237Z,1018.03
2019-02-15T08:59:02.221Z,1018.02
2019-02-15T09:00:02.195Z,1018.03
2019-02-15T09:01:02.198Z,1018.02
2019-02-15T09:02:02.153Z,1017.99
2019-02-15T09:03:02.133Z,1018.02
2019-02-15T09:04:02.118Z,1018.05
2019-02-15T09:05:02.402Z,1018.03
2019-02-15T09:06:02.073Z,1018.06
2019-02-15T09:07:02.057Z,1018.02
2019-02-15T09:08:02.046Z,1018.04
2019-02-15T09:09:02.013Z,1018.00
2019-02-15T09:10:01.992Z,1018.02
2019-02-15T09:11:02.490Z,1018.00
2019-02-15T09:12:01.961Z,1018.04
2019-02-15T09:13:01.932Z,1018.03
2019-02-15T09:14:01.921Z,1017.95
2019-02-15T09:15:01.894Z,1017.97
2019-02-15T09:16:10.092Z,1017.99
2019-02-15T09:17:01.865Z,1017.98
2019-02-15T09:18:01.824Z,1017.99
2019-02-15T09:19:01.804Z,1017.95
2019-02-15T09:20:01.791Z,1017.99
2019-02-15T09:21:01.768Z,1017.96
2019-02-15T09:22:01.763Z,1017.98
2019-02-15T09:23:01.757Z,1017.99
2019-02-15T09:24:01.747Z,1017.91
2019-02-15T09:25:01.697Z,1017.96
2019-02-15T09:26:01.670Z,1017.97
2019-02-15T09:27:01.647Z,1017.92
2019-02-15T09:28:01.622Z,1017.91
2019-02-15T09:29:01.604Z,1017.91
2019-02-15T09:30:01.611Z,1017.90
2019-02-15T09:31:01.576Z,1017.88
2019-02-15T09:32:01.557Z,1017.80
2019-02-15T09:33:01.538Z,1017.87
2019-02-15T09:34:01.507Z,1017.90
2019-02-15T09:35:01.482Z,1017.83
2019-02-15T09:36:01.467Z,1017.81
2019-02-15T09:37:01.495Z,1017.85
2019-02-15T09:38:01.420Z,1017.83
2019-02-15T09:39:01.411Z,1017.91
2019-02-15T09:40:01.399Z,1017.85
2019-02-15T09:41:01.365Z,1017.91
2019-02-15T09:42:01.370Z,1017.83
2019-02-15T09:43:01.321Z,1017.90
2019-02-15T09:44:01.308Z,1017.96
2019-02-15T09:45:01.284Z,1017.94
2019-02-15T09:46:01.268Z,1017.95
2019-02-15T09:47:01.246Z,1017.92
2019-02-15T09:48:01.226Z,1017.91
2019-02-15T09:49:01.216Z,1017.92
2019-02-15T09:50:01.197Z,1017.90
2019-02-15T09:51:01.169Z,1017.97
2019-02-15T09:52:01.164Z,1017.92
2019-02-15T09:53:01.162Z,1017.94
2019-02-15T09:54:01.128Z,1017.94
2019-02-15T09:55:01.090Z,1017.90
2019-02-15T09:56:01.067Z,1017.89
2019-02-15T09:57:01.049Z,1017.85
2019-02-15T09:58:01.035Z,1017.88
2019-02-15T09:59:01.012Z,1017.88
2019-02-15T10:00:00.997Z,1017.93
2019-02-15T10:01:00.965Z,1017.92
2019-02-15T10:02:00.953Z,1017.91
2019-02-15T10:03:00.957Z,1017.92
2019-02-15T10:04:00.958Z,1017.93
2019-02-15T10:05:00.897Z,1017.93
2019-02-15T10:06:00.878Z,1017.96
2019-02-15T10:07:00.857Z,1017.93
2019-02-15T10:08:00.837Z,1017.91
2019-02-15T10:09:00.824Z,1017.92
2019-02-15T10:10:00.793Z,1017.94
2019-02-15T10:11:00.781Z,1017.94
2019-02-15T10:12:00.758Z,1017.95
2019-02-15T10:13:00.735Z,1017.91
2019-02-15T10:14:00.723Z,1017.90
2019-02-15T10:15:00.702Z,1017.95
2019-02-15T10:16:00.684Z,1017.91
2019-02-15T10:17:00.663Z,1017.92
2019-02-15T10:18:00.637Z,1017.90
2019-02-15T10:19:00.623Z,1017.89
2019-02-15T10:20:00.606Z,1017.91
2019-02-15T10:21:00.612Z,1017.85
2019-02-15T10:22:00.567Z,1017.86
2019-02-15T10:23:00.569Z,1017.89
2019-02-15T10:24:00.526Z,1017.89
2019-02-15T10:25:00.506Z,1017.91
2019-02-15T10:26:00.488Z,1017.91
2019-02-15T10:27:00.469Z,1017.85
2019-02-15T10:28:00.465Z,1017.87
2019-02-15T10:29:00.473Z,1017.88
2019-02-15T10:30:02.429Z,1017.90
2019-02-15T10:31:00.395Z,1017.91
2019-02-15T10:32:00.372Z,1017.93
2019-02-15T10:33:00.356Z,1017.92
2019-02-15T10:34:00.341Z,1017.89
2019-02-15T10:35:00.351Z,1017.94
2019-02-15T10:36:00.295Z,1017.87
2019-02-15T10:37:00.276Z,1017.91
2019-02-15T10:38:00.310Z,1017.91
2019-02-15T10:39:00.237Z,1017.89
2019-02-15T10:40:00.323Z,1017.93
2019-02-15T10:41:00.200Z,1017.90
2019-02-15T10:42:00.181Z,1017.91
2019-02-15T10:43:00.161Z,1017.93
2019-02-15T10:44:00.150Z,1017.92
2019-02-15T10:45:00.161Z,1017.89
2019-02-15T10:46:00.101Z,1017.92
2019-02-15T10:47:00.090Z,1017.90
2019-02-15T10:48:00.065Z,1017.91
2019-02-15T10:49:00.045Z,1017.87
2019-02-15T10:50:00.025Z,1017.86
2019-02-15T10:51:00.006Z,1017.86
2019-02-15T10:51:59.991Z,1017.86
2019-02-15T10:52:59.968Z,1017.88
2019-02-15T10:54:00.189Z,1017.83
2019-02-15T10:54:59.932Z,1017.74
2019-02-15T10:55:59.908Z,1017.74
2019-02-15T10:56:59.911Z,1017.75
2019-02-15T10:57:59.876Z,1017.74
2019-02-15T10:58:59.850Z,1017.72
2019-02-15T10:59:59.836Z,1017.70
2019-02-15T11:00:59.820Z,1017.72
2019-02-15T11:01:59.796Z,1017.78
2019-02-15T11:02:59.779Z,1017.78
2019-02-15T11:03:59.771Z,1017.72
2019-02-15T11:04:59.741Z,1017.71
2019-02-15T11:05:59.723Z,1017.68
2019-02-15T11:06:59.702Z,1017.70
2019-02-15T11:07:59.686Z,1017.70
2019-02-15T11:08:59.667Z,1017.72
2019-02-15T11:09:59.658Z,1017.69
2019-02-15T11:10:59.627Z,1017.71
2019-02-15T11:11:59.610Z,1017.73
2019-02-15T11:12:59.642Z,1017.71
2019-02-15T11:13:59.568Z,1017.69
2019-02-15T11:14:59.555Z,1017.70
2019-02-15T11:15:59.549Z,1017.70
2019-02-15T11:16:59.520Z,1017.73
2019-02-15T11:17:59.519Z,1017.67
2019-02-15T11:18:59.499Z,1017.70
2019-02-15T11:19:59.475Z,1017.65
2019-02-15T11:20:59.440Z,1017.63
2019-02-15T11:21:59.421Z,1017.59
2019-02-15T11:22:59.405Z,1017.64
2019-02-15T11:23:59.391Z,1017.62
2019-02-15T11:24:59.366Z,1017.60
2019-02-15T11:25:59.345Z,1017.60
2019-02-15T11:26:59.331Z,1017.61
2019-02-15T11:27:59.313Z,1017.59
2019-02-15T11:28:59.293Z,1017.60
2019-02-15T11:29:59.269Z,1017.54
2019-02-15T11:30:59.256Z,1017.59
2019-02-15T11:31:59.237Z,1017.61
2019-02-15T11:32:59.217Z,1017.60
2019-02-15T11:33:59.203Z,1017.60
2019-02-15T11:34:59.188Z,1017.58
2019-02-15T11:35:59.162Z,1017.61
2019-02-15T11:36:59.145Z,1017.56
2019-02-15T11:37:59.131Z,1017.54
2019-02-15T11:38:59.104Z,1017.59
2019-02-15T11:39:59.091Z,1017.52
2019-02-15T11:40:59.081Z,1017.55
2019-02-15T11:41:59.056Z,1017.55
2019-02-15T11:42:59.036Z,1017.54
2019-02-15T11:43:59.018Z,1017.55
2019-02-15T11:44:59.001Z,1017.57
2019-02-15T11:45:58.979Z,1017.56
2019-02-15T11:46:58.986Z,1017.53
2019-02-15T11:47:58.963Z,1017.52
2019-02-15T11:48:58.929Z,1017.47
2019-02-15T11:49:58.934Z,1017.54
2019-02-15T11:50:58.890Z,1017.50
2019-02-15T11:51:58.881Z,1017.49
2019-02-15T11:52:58.849Z,1017.48
2019-02-15T11:53:58.848Z,1017.48
2019-02-15T11:54:58.816Z,1017.46
2019-02-15T11:55:58.808Z,1017.45
2019-02-15T11:56:58.777Z,1017.44
2019-02-15T11:57:58.753Z,1017.42
2019-02-15T11:58:58.740Z,1017.35
2019-02-15T11:59:58.725Z,1017.40
2019-02-15T12:00:58.703Z,1017.32
2019-02-15T12:02:05.874Z,1017.28
2019-02-15T12:02:58.668Z,1017.25
2019-02-15T12:03:58.651Z,1017.29
2019-02-15T12:04:58.629Z,1017.28